sensor_id;sensor_type;location;lat;lon;timestamp;temperature;humidity
11599;DHT22;5855;48.840;9.188;2024-01-30T00:01:16;3.20;99.90
11599;DHT22;5855;48.840;9.188;2024-01-30T00:03:42;3.20;99.90
11599;DHT22;5855;48.840;9.188;2024-01-30T00:06:09;3.10;99.90
11599;DHT22;5855;48.840;9.188;2024-01-30T00:08:36;3.10;99.90
11599;DHT22;5855;48.840;9.188;2024-01-30T00:11:03;3.20;99.90
11599;DHT22;5855;48.840;9.188;2024-01-30T00:13:32;3.10;99.90
11599;DHT22;5855;48.840;9.188;2024-01-30T00:15:59;3.10;99.90
11599;DHT22;5855;48.840;9.188;2024-01-30T00:18:25;3.10;99.90
11599;DHT22;5855;48.840;9.188;2024-01-30T00:20:55;3.10;99.90
11599;DHT22;5855;48.840;9.188;2024-01-30T00:23:22;3.10;99.90
11599;DHT22;5855;48.840;9.188;2024-01-30T00:25:50;3.00;99.90
11599;DHT22;5855;48.840;9.188;2024-01-30T00:28:17;2.90;99.90
11599;DHT22;5855;48.840;9.188;2024-01-30T00:30:45;2.80;99.90
11599;DHT22;5855;48.840;9.188;2024-01-30T00:33:12;2.80;99.90
11599;DHT22;5855;48.840;9.188;2024-01-30T00:35:39;2.80;99.90
11599;DHT22;5855;48.840;9.188;2024-01-30T00:38:05;2.80;99.90
11599;DHT22;5855;48.840;9.188;2024-01-30T00:40:33;2.80;99.90
11599;DHT22;5855;48.840;9.188;2024-01-30T00:43:00;2.80;99.90
11599;DHT22;5855;48.840;9.188;2024-01-30T00:45:27;2.80;99.90
11599;DHT22;5855;48.840;9.188;2024-01-30T00:47:55;2.80;99.90
11599;DHT22;5855;48.840;9.188;2024-01-30T00:50:22;2.80;99.90
11599;DHT22;5855;48.840;9.188;2024-01-30T00:52:48;2.80;99.90
11599;DHT22;5855;48.840;9.188;2024-01-30T00:55:15;2.80;99.90
11599;DHT22;5855;48.840;9.188;2024-01-30T00:57:42;2.70;99.90
11599;DHT22;5855;48.840;9.188;2024-01-30T01:00:10;2.70;99.90
11599;DHT22;5855;48.840;9.188;2024-01-30T01:02:38;2.70;99.90
11599;DHT22;5855;48.840;9.188;2024-01-30T01:05:07;2.70;99.90
11599;DHT22;5855;48.840;9.188;2024-01-30T01:07:32;2.70;99.90
11599;DHT22;5855;48.840;9.188;2024-01-30T01:09:59;2.60;99.90
11599;DHT22;5855;48.840;9.188;2024-01-30T01:12:26;2.60;99.90
11599;DHT22;5855;48.840;9.188;2024-01-30T01:14:53;2.50;99.90
11599;DHT22;5855;48.840;9.188;2024-01-30T01:17:20;2.50;99.90
11599;DHT22;5855;48.840;9.188;2024-01-30T01:19:46;2.50;99.90
11599;DHT22;5855;48.840;9.188;2024-01-30T01:22:15;2.50;99.90
11599;DHT22;5855;48.840;9.188;2024-01-30T01:24:42;2.50;99.90
11599;DHT22;5855;48.840;9.188;2024-01-30T01:27:09;2.50;99.90
11599;DHT22;5855;48.840;9.188;2024-01-30T01:29:37;2.50;99.90
11599;DHT22;5855;48.840;9.188;2024-01-30T01:32:04;2.50;99.90
11599;DHT22;5855;48.840;9.188;2024-01-30T01:34:31;2.40;99.90
11599;DHT22;5855;48.840;9.188;2024-01-30T01:36:58;2.40;99.90
11599;DHT22;5855;48.840;9.188;2024-01-30T01:39:26;2.40;99.90
11599;DHT22;5855;48.840;9.188;2024-01-30T01:41:53;2.40;99.90
11599;DHT22;5855;48.840;9.188;2024-01-30T01:44:19;2.40;99.90
11599;DHT22;5855;48.840;9.188;2024-01-30T01:46:47;2.40;99.90
11599;DHT22;5855;48.840;9.188;2024-01-30T01:49:14;2.40;99.90
11599;DHT22;5855;48.840;9.188;2024-01-30T01:51:42;2.40;99.90
11599;DHT22;5855;48.840;9.188;2024-01-30T01:54:10;2.40;99.90
11599;DHT22;5855;48.840;9.188;2024-01-30T01:56:39;2.40;99.90
11599;DHT22;5855;48.840;9.188;2024-01-30T01:59:07;2.30;99.90
11599;DHT22;5855;48.840;9.188;2024-01-30T02:01:34;2.30;99.90
11599;DHT22;5855;48.840;9.188;2024-01-30T02:04:01;2.20;99.90
11599;DHT22;5855;48.840;9.188;2024-01-30T02:06:28;2.20;99.90
11599;DHT22;5855;48.840;9.188;2024-01-30T02:08:55;2.20;99.90
11599;DHT22;5855;48.840;9.188;2024-01-30T02:11:22;2.20;99.90
11599;DHT22;5855;48.840;9.188;2024-01-30T02:13:51;2.10;99.90
11599;DHT22;5855;48.840;9.188;2024-01-30T02:16:17;2.10;99.90
11599;DHT22;5855;48.840;9.188;2024-01-30T02:18:44;2.10;99.90
11599;DHT22;5855;48.840;9.188;2024-01-30T02:21:15;2.20;99.90
11599;DHT22;5855;48.840;9.188;2024-01-30T02:23:43;2.20;99.90
11599;DHT22;5855;48.840;9.188;2024-01-30T02:26:10;2.30;99.90
11599;DHT22;5855;48.840;9.188;2024-01-30T02:28:40;2.40;99.90
11599;DHT22;5855;48.840;9.188;2024-01-30T02:31:07;2.40;99.90
11599;DHT22;5855;48.840;9.188;2024-01-30T02:33:33;2.40;99.90
11599;DHT22;5855;48.840;9.188;2024-01-30T02:36:00;2.40;99.90
11599;DHT22;5855;48.840;9.188;2024-01-30T02:38:29;2.40;99.90
11599;DHT22;5855;48.840;9.188;2024-01-30T02:40:56;2.50;99.90
11599;DHT22;5855;48.840;9.188;2024-01-30T02:43:23;2.50;99.90
11599;DHT22;5855;48.840;9.188;2024-01-30T02:45:50;2.60;99.90
11599;DHT22;5855;48.840;9.188;2024-01-30T02:48:16;2.60;99.90
11599;DHT22;5855;48.840;9.188;2024-01-30T02:50:46;2.60;99.90
11599;DHT22;5855;48.840;9.188;2024-01-30T02:53:13;2.70;99.90
11599;DHT22;5855;48.840;9.188;2024-01-30T02:55:41;2.70;99.90
11599;DHT22;5855;48.840;9.188;2024-01-30T02:58:08;2.80;99.90
11599;DHT22;5855;48.840;9.188;2024-01-30T03:00:35;2.80;99.90
11599;DHT22;5855;48.840;9.188;2024-01-30T03:03:01;2.80;99.90
11599;DHT22;5855;48.840;9.188;2024-01-30T03:05:28;2.80;99.90
11599;DHT22;5855;48.840;9.188;2024-01-30T03:07:55;2.80;99.90
11599;DHT22;5855;48.840;9.188;2024-01-30T03:10:22;2.80;99.90
11599;DHT22;5855;48.840;9.188;2024-01-30T03:12:50;2.80;99.90
11599;DHT22;5855;48.840;9.188;2024-01-30T03:15:20;2.80;99.90
11599;DHT22;5855;48.840;9.188;2024-01-30T03:17:48;2.80;99.90
11599;DHT22;5855;48.840;9.188;2024-01-30T03:20:15;2.70;99.90
11599;DHT22;5855;48.840;9.188;2024-01-30T03:22:42;2.70;99.90
11599;DHT22;5855;48.840;9.188;2024-01-30T03:25:08;2.70;99.90
11599;DHT22;5855;48.840;9.188;2024-01-30T03:27:35;2.70;99.90
11599;DHT22;5855;48.840;9.188;2024-01-30T03:30:05;2.60;99.90
11599;DHT22;5855;48.840;9.188;2024-01-30T03:32:34;2.60;99.90
11599;DHT22;5855;48.840;9.188;2024-01-30T03:35:01;2.50;99.90
11599;DHT22;5855;48.840;9.188;2024-01-30T03:37:28;2.50;99.90
11599;DHT22;5855;48.840;9.188;2024-01-30T03:39:55;2.40;99.90
11599;DHT22;5855;48.840;9.188;2024-01-30T03:42:22;2.40;99.90
11599;DHT22;5855;48.840;9.188;2024-01-30T03:44:49;2.30;99.90
11599;DHT22;5855;48.840;9.188;2024-01-30T03:47:19;2.30;99.90
11599;DHT22;5855;48.840;9.188;2024-01-30T03:49:46;2.30;99.90
11599;DHT22;5855;48.840;9.188;2024-01-30T03:52:13;2.20;99.90
11599;DHT22;5855;48.840;9.188;2024-01-30T03:54:40;2.20;99.90
11599;DHT22;5855;48.840;9.188;2024-01-30T03:57:06;2.20;99.90
11599;DHT22;5855;48.840;9.188;2024-01-30T03:59:33;2.20;99.90
11599;DHT22;5855;48.840;9.188;2024-01-30T04:01:59;2.20;99.90
11599;DHT22;5855;48.840;9.188;2024-01-30T04:04:28;2.20;99.90
11599;DHT22;5855;48.840;9.188;2024-01-30T04:06:55;2.20;99.90
11599;DHT22;5855;48.840;9.188;2024-01-30T04:09:21;2.10;99.90
11599;DHT22;5855;48.840;9.188;2024-01-30T04:11:48;2.10;99.90
11599;DHT22;5855;48.840;9.188;2024-01-30T04:14:15;2.10;99.90
11599;DHT22;5855;48.840;9.188;2024-01-30T04:16:42;2.10;99.90
11599;DHT22;5855;48.840;9.188;2024-01-30T04:19:09;2.00;99.90
11599;DHT22;5855;48.840;9.188;2024-01-30T04:21:37;2.00;99.90
11599;DHT22;5855;48.840;9.188;2024-01-30T04:24:05;2.00;99.90
11599;DHT22;5855;48.840;9.188;2024-01-30T04:26:31;1.90;99.90
11599;DHT22;5855;48.840;9.188;2024-01-30T04:28:58;1.90;99.90
11599;DHT22;5855;48.840;9.188;2024-01-30T04:31:25;1.90;99.90
11599;DHT22;5855;48.840;9.188;2024-01-30T04:33:52;1.90;99.90
11599;DHT22;5855;48.840;9.188;2024-01-30T04:36:19;1.90;99.90
11599;DHT22;5855;48.840;9.188;2024-01-30T04:38:47;1.90;99.90
11599;DHT22;5855;48.840;9.188;2024-01-30T04:41:14;1.90;99.90
11599;DHT22;5855;48.840;9.188;2024-01-30T04:43:41;1.90;99.90
11599;DHT22;5855;48.840;9.188;2024-01-30T04:46:08;1.90;99.90
11599;DHT22;5855;48.840;9.188;2024-01-30T04:48:34;1.90;99.90
11599;DHT22;5855;48.840;9.188;2024-01-30T04:51:01;2.00;99.90
11599;DHT22;5855;48.840;9.188;2024-01-30T04:53:30;2.00;99.90
11599;DHT22;5855;48.840;9.188;2024-01-30T04:55:58;2.00;99.90
11599;DHT22;5855;48.840;9.188;2024-01-30T04:58:25;2.10;99.90
11599;DHT22;5855;48.840;9.188;2024-01-30T05:00:52;2.10;99.90
11599;DHT22;5855;48.840;9.188;2024-01-30T05:03:19;2.10;99.90
11599;DHT22;5855;48.840;9.188;2024-01-30T05:05:48;2.10;99.90
11599;DHT22;5855;48.840;9.188;2024-01-30T05:08:14;2.10;99.90
11599;DHT22;5855;48.840;9.188;2024-01-30T05:10:41;2.20;99.90
11599;DHT22;5855;48.840;9.188;2024-01-30T05:13:10;2.20;99.90
11599;DHT22;5855;48.840;9.188;2024-01-30T05:15:39;2.20;99.90
11599;DHT22;5855;48.840;9.188;2024-01-30T05:18:06;2.20;99.90
11599;DHT22;5855;48.840;9.188;2024-01-30T05:20:33;2.20;99.90
11599;DHT22;5855;48.840;9.188;2024-01-30T05:22:59;2.30;99.90
11599;DHT22;5855;48.840;9.188;2024-01-30T05:25:26;2.30;99.90
11599;DHT22;5855;48.840;9.188;2024-01-30T05:27:53;2.30;99.90
11599;DHT22;5855;48.840;9.188;2024-01-30T05:30:22;2.30;99.90
11599;DHT22;5855;48.840;9.188;2024-01-30T05:32:49;2.30;99.90
11599;DHT22;5855;48.840;9.188;2024-01-30T05:35:16;2.40;99.90
11599;DHT22;5855;48.840;9.188;2024-01-30T05:37:43;2.40;99.90
11599;DHT22;5855;48.840;9.188;2024-01-30T05:40:11;2.40;99.90
11599;DHT22;5855;48.840;9.188;2024-01-30T05:42:37;2.40;99.90
11599;DHT22;5855;48.840;9.188;2024-01-30T05:45:05;2.40;99.90
11599;DHT22;5855;48.840;9.188;2024-01-30T05:47:34;2.40;99.90
11599;DHT22;5855;48.840;9.188;2024-01-30T05:50:01;2.30;99.90
11599;DHT22;5855;48.840;9.188;2024-01-30T05:52:28;2.40;99.90
11599;DHT22;5855;48.840;9.188;2024-01-30T05:54:55;2.40;99.90
11599;DHT22;5855;48.840;9.188;2024-01-30T05:57:22;2.40;99.90
11599;DHT22;5855;48.840;9.188;2024-01-30T05:59:51;2.40;99.90
11599;DHT22;5855;48.840;9.188;2024-01-30T06:02:18;2.40;99.90
11599;DHT22;5855;48.840;9.188;2024-01-30T06:04:46;2.40;99.90
11599;DHT22;5855;48.840;9.188;2024-01-30T06:07:13;2.50;99.90
11599;DHT22;5855;48.840;9.188;2024-01-30T06:09:43;2.40;99.90
11599;DHT22;5855;48.840;9.188;2024-01-30T06:12:11;2.50;99.90
11599;DHT22;5855;48.840;9.188;2024-01-30T06:14:41;2.50;99.90
11599;DHT22;5855;48.840;9.188;2024-01-30T06:17:08;2.50;99.90
11599;DHT22;5855;48.840;9.188;2024-01-30T06:19:37;2.50;99.90
11599;DHT22;5855;48.840;9.188;2024-01-30T06:22:05;2.50;99.90
11599;DHT22;5855;48.840;9.188;2024-01-30T06:24:32;2.50;99.90
11599;DHT22;5855;48.840;9.188;2024-01-30T06:27:00;2.50;99.90
11599;DHT22;5855;48.840;9.188;2024-01-30T06:29:27;2.50;99.90
11599;DHT22;5855;48.840;9.188;2024-01-30T06:31:54;2.50;99.90
11599;DHT22;5855;48.840;9.188;2024-01-30T06:34:22;2.50;99.90
11599;DHT22;5855;48.840;9.188;2024-01-30T06:36:51;2.60;99.90
11599;DHT22;5855;48.840;9.188;2024-01-30T06:39:22;2.50;99.90
11599;DHT22;5855;48.840;9.188;2024-01-30T06:41:50;2.50;99.90
11599;DHT22;5855;48.840;9.188;2024-01-30T06:44:17;2.50;99.90
11599;DHT22;5855;48.840;9.188;2024-01-30T06:46:44;2.50;99.90
11599;DHT22;5855;48.840;9.188;2024-01-30T06:49:11;2.50;99.90
11599;DHT22;5855;48.840;9.188;2024-01-30T06:51:38;2.50;99.90
11599;DHT22;5855;48.840;9.188;2024-01-30T06:54:05;2.40;99.90
11599;DHT22;5855;48.840;9.188;2024-01-30T06:56:33;2.50;99.90
11599;DHT22;5855;48.840;9.188;2024-01-30T06:59:00;2.50;99.90
11599;DHT22;5855;48.840;9.188;2024-01-30T07:01:28;2.50;99.90
11599;DHT22;5855;48.840;9.188;2024-01-30T07:03:55;2.50;99.90
11599;DHT22;5855;48.840;9.188;2024-01-30T07:06:22;2.50;99.90
11599;DHT22;5855;48.840;9.188;2024-01-30T07:08:49;2.50;99.90
11599;DHT22;5855;48.840;9.188;2024-01-30T07:11:18;2.50;99.90
11599;DHT22;5855;48.840;9.188;2024-01-30T07:13:49;2.50;99.90
11599;DHT22;5855;48.840;9.188;2024-01-30T07:16:16;2.50;99.90
11599;DHT22;5855;48.840;9.188;2024-01-30T07:18:44;2.50;99.90
11599;DHT22;5855;48.840;9.188;2024-01-30T07:21:12;2.50;99.90
11599;DHT22;5855;48.840;9.188;2024-01-30T07:23:39;2.50;99.90
11599;DHT22;5855;48.840;9.188;2024-01-30T07:26:06;2.50;99.90
11599;DHT22;5855;48.840;9.188;2024-01-30T07:28:34;2.60;99.90
11599;DHT22;5855;48.840;9.188;2024-01-30T07:31:02;2.60;99.90
11599;DHT22;5855;48.840;9.188;2024-01-30T07:33:31;2.60;99.90
11599;DHT22;5855;48.840;9.188;2024-01-30T07:35:58;2.70;99.90
11599;DHT22;5855;48.840;9.188;2024-01-30T07:38:25;2.70;99.90
11599;DHT22;5855;48.840;9.188;2024-01-30T07:40:52;2.80;99.90
11599;DHT22;5855;48.840;9.188;2024-01-30T07:43:19;2.80;99.90
11599;DHT22;5855;48.840;9.188;2024-01-30T07:45:46;2.90;99.90
11599;DHT22;5855;48.840;9.188;2024-01-30T07:48:14;3.00;99.90
11599;DHT22;5855;48.840;9.188;2024-01-30T07:50:41;3.00;99.90
11599;DHT22;5855;48.840;9.188;2024-01-30T07:53:08;3.00;99.90
11599;DHT22;5855;48.840;9.188;2024-01-30T07:55:35;3.00;99.90
11599;DHT22;5855;48.840;9.188;2024-01-30T07:58:02;3.10;99.90
11599;DHT22;5855;48.840;9.188;2024-01-30T08:00:30;3.10;99.90
11599;DHT22;5855;48.840;9.188;2024-01-30T08:02:57;3.20;99.90
11599;DHT22;5855;48.840;9.188;2024-01-30T08:05:25;3.20;99.90
11599;DHT22;5855;48.840;9.188;2024-01-30T08:07:52;3.20;99.90
11599;DHT22;5855;48.840;9.188;2024-01-30T08:10:19;3.40;99.90
11599;DHT22;5855;48.840;9.188;2024-01-30T08:12:46;3.50;99.90
11599;DHT22;5855;48.840;9.188;2024-01-30T08:15:13;3.60;99.90
11599;DHT22;5855;48.840;9.188;2024-01-30T08:17:40;3.70;99.90
11599;DHT22;5855;48.840;9.188;2024-01-30T08:20:07;3.90;99.90
11599;DHT22;5855;48.840;9.188;2024-01-30T08:22:38;4.10;99.90
11599;DHT22;5855;48.840;9.188;2024-01-30T08:25:06;4.20;99.90
11599;DHT22;5855;48.840;9.188;2024-01-30T08:27:33;4.30;99.90
11599;DHT22;5855;48.840;9.188;2024-01-30T08:30:01;4.50;99.90
11599;DHT22;5855;48.840;9.188;2024-01-30T08:32:28;4.60;99.90
11599;DHT22;5855;48.840;9.188;2024-01-30T08:34:54;4.70;99.90
11599;DHT22;5855;48.840;9.188;2024-01-30T08:37:21;4.80;99.90
11599;DHT22;5855;48.840;9.188;2024-01-30T08:39:49;4.90;99.90
11599;DHT22;5855;48.840;9.188;2024-01-30T08:42:16;5.00;99.90
11599;DHT22;5855;48.840;9.188;2024-01-30T08:44:47;5.20;99.90
11599;DHT22;5855;48.840;9.188;2024-01-30T08:47:14;5.30;99.90
11599;DHT22;5855;48.840;9.188;2024-01-30T08:49:43;5.40;99.90
11599;DHT22;5855;48.840;9.188;2024-01-30T08:52:10;5.60;99.90
11599;DHT22;5855;48.840;9.188;2024-01-30T08:54:37;5.70;99.90
11599;DHT22;5855;48.840;9.188;2024-01-30T08:57:05;5.70;99.90
11599;DHT22;5855;48.840;9.188;2024-01-30T08:59:32;5.90;99.90
11599;DHT22;5855;48.840;9.188;2024-01-30T09:01:59;6.10;99.90
11599;DHT22;5855;48.840;9.188;2024-01-30T09:04:26;6.10;99.90
11599;DHT22;5855;48.840;9.188;2024-01-30T09:06:53;6.10;99.90
11599;DHT22;5855;48.840;9.188;2024-01-30T09:09:19;6.40;99.90
11599;DHT22;5855;48.840;9.188;2024-01-30T09:11:46;6.50;99.90
11599;DHT22;5855;48.840;9.188;2024-01-30T09:14:14;6.50;99.90
11599;DHT22;5855;48.840;9.188;2024-01-30T09:16:41;6.70;99.90
11599;DHT22;5855;48.840;9.188;2024-01-30T09:19:08;6.90;99.90
11599;DHT22;5855;48.840;9.188;2024-01-30T09:21:35;7.00;99.90
11599;DHT22;5855;48.840;9.188;2024-01-30T09:24:02;7.10;99.90
11599;DHT22;5855;48.840;9.188;2024-01-30T09:26:30;7.00;99.90
11599;DHT22;5855;48.840;9.188;2024-01-30T09:28:57;7.20;99.90
11599;DHT22;5855;48.840;9.188;2024-01-30T09:31:25;7.40;99.90
11599;DHT22;5855;48.840;9.188;2024-01-30T09:33:52;7.40;99.90
11599;DHT22;5855;48.840;9.188;2024-01-30T09:36:19;7.70;99.90
11599;DHT22;5855;48.840;9.188;2024-01-30T09:38:46;7.80;99.90
11599;DHT22;5855;48.840;9.188;2024-01-30T09:41:13;8.20;99.90
11599;DHT22;5855;48.840;9.188;2024-01-30T09:43:42;8.40;99.90
11599;DHT22;5855;48.840;9.188;2024-01-30T09:46:15;8.50;99.90
11599;DHT22;5855;48.840;9.188;2024-01-30T09:48:46;8.50;99.90
11599;DHT22;5855;48.840;9.188;2024-01-30T09:51:14;8.80;99.90
11599;DHT22;5855;48.840;9.188;2024-01-30T09:53:42;9.00;99.90
11599;DHT22;5855;48.840;9.188;2024-01-30T09:56:12;9.30;99.90
11599;DHT22;5855;48.840;9.188;2024-01-30T09:58:39;9.30;99.90
11599;DHT22;5855;48.840;9.188;2024-01-30T10:01:06;9.50;99.90
11599;DHT22;5855;48.840;9.188;2024-01-30T10:03:33;9.60;99.90
11599;DHT22;5855;48.840;9.188;2024-01-30T10:06:01;9.60;99.90
11599;DHT22;5855;48.840;9.188;2024-01-30T10:08:28;9.40;99.90
11599;DHT22;5855;48.840;9.188;2024-01-30T10:10:55;9.30;99.90
11599;DHT22;5855;48.840;9.188;2024-01-30T10:13:23;9.50;99.90
11599;DHT22;5855;48.840;9.188;2024-01-30T10:15:49;9.90;99.90
11599;DHT22;5855;48.840;9.188;2024-01-30T10:18:17;9.60;99.90
11599;DHT22;5855;48.840;9.188;2024-01-30T10:20:44;9.60;99.90
11599;DHT22;5855;48.840;9.188;2024-01-30T10:23:13;9.80;99.90
11599;DHT22;5855;48.840;9.188;2024-01-30T10:25:40;9.70;99.90
11599;DHT22;5855;48.840;9.188;2024-01-30T10:28:07;10.00;99.90
11599;DHT22;5855;48.840;9.188;2024-01-30T10:30:34;9.90;99.90
11599;DHT22;5855;48.840;9.188;2024-01-30T10:33:01;9.90;99.90
11599;DHT22;5855;48.840;9.188;2024-01-30T10:35:28;9.90;99.90
11599;DHT22;5855;48.840;9.188;2024-01-30T10:37:56;9.90;99.90
11599;DHT22;5855;48.840;9.188;2024-01-30T10:40:28;10.00;99.90
11599;DHT22;5855;48.840;9.188;2024-01-30T10:42:56;10.40;99.90
11599;DHT22;5855;48.840;9.188;2024-01-30T10:45:26;10.60;99.90
11599;DHT22;5855;48.840;9.188;2024-01-30T10:47:58;10.50;99.90
11599;DHT22;5855;48.840;9.188;2024-01-30T10:50:26;10.80;99.90
11599;DHT22;5855;48.840;9.188;2024-01-30T10:52:55;11.00;99.90
11599;DHT22;5855;48.840;9.188;2024-01-30T10:55:22;11.10;99.90
11599;DHT22;5855;48.840;9.188;2024-01-30T10:57:51;10.50;99.90
11599;DHT22;5855;48.840;9.188;2024-01-30T11:00:22;10.60;99.90
11599;DHT22;5855;48.840;9.188;2024-01-30T11:02:50;10.60;99.90
11599;DHT22;5855;48.840;9.188;2024-01-30T11:05:24;11.00;99.90
11599;DHT22;5855;48.840;9.188;2024-01-30T11:07:52;11.40;99.90
11599;DHT22;5855;48.840;9.188;2024-01-30T11:10:19;11.10;99.90
11599;DHT22;5855;48.840;9.188;2024-01-30T11:12:46;11.00;99.90
11599;DHT22;5855;48.840;9.188;2024-01-30T11:15:15;11.00;99.90
11599;DHT22;5855;48.840;9.188;2024-01-30T11:17:44;11.40;99.90
11599;DHT22;5855;48.840;9.188;2024-01-30T11:20:11;11.30;99.90
11599;DHT22;5855;48.840;9.188;2024-01-30T11:22:41;11.50;99.90
11599;DHT22;5855;48.840;9.188;2024-01-30T11:25:11;11.70;99.90
11599;DHT22;5855;48.840;9.188;2024-01-30T11:27:38;12.00;99.90
11599;DHT22;5855;48.840;9.188;2024-01-30T11:30:07;12.20;99.90
11599;DHT22;5855;48.840;9.188;2024-01-30T11:32:35;12.30;99.90
11599;DHT22;5855;48.840;9.188;2024-01-30T11:35:04;12.50;99.90
11599;DHT22;5855;48.840;9.188;2024-01-30T11:37:34;12.50;99.90
11599;DHT22;5855;48.840;9.188;2024-01-30T11:40:04;12.40;99.90
11599;DHT22;5855;48.840;9.188;2024-01-30T11:42:32;12.60;99.90
11599;DHT22;5855;48.840;9.188;2024-01-30T11:45:00;12.60;99.90
11599;DHT22;5855;48.840;9.188;2024-01-30T11:47:28;12.70;99.90
11599;DHT22;5855;48.840;9.188;2024-01-30T11:49:56;12.60;99.90
11599;DHT22;5855;48.840;9.188;2024-01-30T11:52:23;12.60;99.90
11599;DHT22;5855;48.840;9.188;2024-01-30T11:54:50;12.80;99.90
11599;DHT22;5855;48.840;9.188;2024-01-30T11:57:17;12.90;99.90
11599;DHT22;5855;48.840;9.188;2024-01-30T11:59:44;13.00;99.90
11599;DHT22;5855;48.840;9.188;2024-01-30T12:02:15;13.00;99.90
11599;DHT22;5855;48.840;9.188;2024-01-30T12:04:43;12.90;99.90
11599;DHT22;5855;48.840;9.188;2024-01-30T12:07:12;13.00;99.90
11599;DHT22;5855;48.840;9.188;2024-01-30T12:09:41;13.10;99.90
11599;DHT22;5855;48.840;9.188;2024-01-30T12:12:08;13.20;99.90
11599;DHT22;5855;48.840;9.188;2024-01-30T12:14:38;13.20;99.90
11599;DHT22;5855;48.840;9.188;2024-01-30T12:17:05;13.20;99.90
11599;DHT22;5855;48.840;9.188;2024-01-30T12:19:33;13.30;99.90
11599;DHT22;5855;48.840;9.188;2024-01-30T12:22:00;13.40;99.90
11599;DHT22;5855;48.840;9.188;2024-01-30T12:24:29;13.60;99.90
11599;DHT22;5855;48.840;9.188;2024-01-30T12:26:57;13.70;99.60
11599;DHT22;5855;48.840;9.188;2024-01-30T12:29:24;13.90;99.60
11599;DHT22;5855;48.840;9.188;2024-01-30T12:31:53;14.00;99.30
11599;DHT22;5855;48.840;9.188;2024-01-30T12:34:20;14.10;99.10
11599;DHT22;5855;48.840;9.188;2024-01-30T12:36:47;14.20;99.10
11599;DHT22;5855;48.840;9.188;2024-01-30T12:39:14;14.30;98.90
11599;DHT22;5855;48.840;9.188;2024-01-30T12:41:43;14.50;98.70
11599;DHT22;5855;48.840;9.188;2024-01-30T12:44:09;14.70;98.30
11599;DHT22;5855;48.840;9.188;2024-01-30T12:46:36;14.90;97.70
11599;DHT22;5855;48.840;9.188;2024-01-30T12:49:03;15.30;97.30
11599;DHT22;5855;48.840;9.188;2024-01-30T12:51:30;15.60;96.30
11599;DHT22;5855;48.840;9.188;2024-01-30T12:54:04;16.20;95.70
11599;DHT22;5855;48.840;9.188;2024-01-30T12:56:31;16.60;94.50
11599;DHT22;5855;48.840;9.188;2024-01-30T12:59:00;17.10;93.30
11599;DHT22;5855;48.840;9.188;2024-01-30T13:01:27;17.50;92.40
11599;DHT22;5855;48.840;9.188;2024-01-30T13:03:54;18.10;90.80
11599;DHT22;5855;48.840;9.188;2024-01-30T13:06:22;18.70;89.30
11599;DHT22;5855;48.840;9.188;2024-01-30T13:08:49;19.40;86.20
11599;DHT22;5855;48.840;9.188;2024-01-30T13:11:16;19.80;83.80
11599;DHT22;5855;48.840;9.188;2024-01-30T13:13:43;20.30;80.50
11599;DHT22;5855;48.840;9.188;2024-01-30T13:16:11;20.90;77.00
11599;DHT22;5855;48.840;9.188;2024-01-30T13:18:38;21.30;72.90
11599;DHT22;5855;48.840;9.188;2024-01-30T13:21:05;22.40;66.80
11599;DHT22;5855;48.840;9.188;2024-01-30T13:23:32;23.40;60.20
11599;DHT22;5855;48.840;9.188;2024-01-30T13:25:59;24.00;55.50
11599;DHT22;5855;48.840;9.188;2024-01-30T13:28:25;23.90;54.10
11599;DHT22;5855;48.840;9.188;2024-01-30T13:30:52;23.80;51.30
11599;DHT22;5855;48.840;9.188;2024-01-30T13:33:21;24.00;49.40
11599;DHT22;5855;48.840;9.188;2024-01-30T13:35:47;23.70;47.70
11599;DHT22;5855;48.840;9.188;2024-01-30T13:38:14;22.70;46.40
11599;DHT22;5855;48.840;9.188;2024-01-30T13:40:41;20.20;49.60
11599;DHT22;5855;48.840;9.188;2024-01-30T13:43:08;20.40;51.00
11599;DHT22;5855;48.840;9.188;2024-01-30T13:45:35;19.80;52.40
11599;DHT22;5855;48.840;9.188;2024-01-30T13:48:04;20.50;53.30
11599;DHT22;5855;48.840;9.188;2024-01-30T13:50:33;20.30;52.00
11599;DHT22;5855;48.840;9.188;2024-01-30T13:53:00;21.00;52.80
11599;DHT22;5855;48.840;9.188;2024-01-30T13:55:27;21.20;52.70
11599;DHT22;5855;48.840;9.188;2024-01-30T13:57:53;19.40;54.00
11599;DHT22;5855;48.840;9.188;2024-01-30T14:00:21;18.50;58.40
11599;DHT22;5855;48.840;9.188;2024-01-30T14:02:48;18.80;58.80
11599;DHT22;5855;48.840;9.188;2024-01-30T14:05:15;17.90;60.40
11599;DHT22;5855;48.840;9.188;2024-01-30T14:07:43;17.60;63.60
11599;DHT22;5855;48.840;9.188;2024-01-30T14:10:10;17.70;63.90
11599;DHT22;5855;48.840;9.188;2024-01-30T14:12:37;17.70;65.30
11599;DHT22;5855;48.840;9.188;2024-01-30T14:15:04;17.90;65.40
11599;DHT22;5855;48.840;9.188;2024-01-30T14:17:31;17.90;65.90
11599;DHT22;5855;48.840;9.188;2024-01-30T14:19:58;17.80;66.30
11599;DHT22;5855;48.840;9.188;2024-01-30T14:22:25;17.80;67.10
11599;DHT22;5855;48.840;9.188;2024-01-30T14:24:53;17.80;67.80
11599;DHT22;5855;48.840;9.188;2024-01-30T14:27:21;17.70;69.80
11599;DHT22;5855;48.840;9.188;2024-01-30T14:29:50;17.60;70.40
11599;DHT22;5855;48.840;9.188;2024-01-30T14:32:17;17.40;71.60
11599;DHT22;5855;48.840;9.188;2024-01-30T14:34:44;17.20;72.40
11599;DHT22;5855;48.840;9.188;2024-01-30T14:40:18;16.60;76.40
11599;DHT22;5855;48.840;9.188;2024-01-30T14:42:45;16.20;78.10
11599;DHT22;5855;48.840;9.188;2024-01-30T14:45:12;15.90;79.20
11599;DHT22;5855;48.840;9.188;2024-01-30T14:47:39;15.60;80.60
11599;DHT22;5855;48.840;9.188;2024-01-30T14:50:06;15.40;82.40
11599;DHT22;5855;48.840;9.188;2024-01-30T14:52:33;15.20;85.30
11599;DHT22;5855;48.840;9.188;2024-01-30T14:55:00;14.90;86.70
11599;DHT22;5855;48.840;9.188;2024-01-30T14:57:29;14.70;89.90
11599;DHT22;5855;48.840;9.188;2024-01-30T14:59:55;14.60;90.50
11599;DHT22;5855;48.840;9.188;2024-01-30T15:02:22;14.40;91.20
11599;DHT22;5855;48.840;9.188;2024-01-30T15:04:49;14.20;92.20
11599;DHT22;5855;48.840;9.188;2024-01-30T15:07:16;14.00;93.30
11599;DHT22;5855;48.840;9.188;2024-01-30T15:09:55;13.80;94.20
11599;DHT22;5855;48.840;9.188;2024-01-30T15:12:22;13.60;94.90
11599;DHT22;5855;48.840;9.188;2024-01-30T15:14:53;13.40;96.10
11599;DHT22;5855;48.840;9.188;2024-01-30T15:17:32;13.20;96.80
11599;DHT22;5855;48.840;9.188;2024-01-30T15:19:59;13.00;97.70
11599;DHT22;5855;48.840;9.188;2024-01-30T15:22:26;12.90;98.70
11599;DHT22;5855;48.840;9.188;2024-01-30T15:24:53;12.70;99.30
11599;DHT22;5855;48.840;9.188;2024-01-30T15:27:20;12.70;99.80
11599;DHT22;5855;48.840;9.188;2024-01-30T15:29:47;12.50;99.90
11599;DHT22;5855;48.840;9.188;2024-01-30T15:32:15;12.40;99.90
11599;DHT22;5855;48.840;9.188;2024-01-30T15:34:42;12.30;99.90
11599;DHT22;5855;48.840;9.188;2024-01-30T15:37:09;12.10;99.90
11599;DHT22;5855;48.840;9.188;2024-01-30T15:39:36;12.00;99.90
11599;DHT22;5855;48.840;9.188;2024-01-30T15:42:03;11.90;99.90
11599;DHT22;5855;48.840;9.188;2024-01-30T15:44:30;11.80;99.90
11599;DHT22;5855;48.840;9.188;2024-01-30T15:46:57;11.60;99.90
11599;DHT22;5855;48.840;9.188;2024-01-30T15:49:26;11.50;99.90
11599;DHT22;5855;48.840;9.188;2024-01-30T15:51:53;11.40;99.90
11599;DHT22;5855;48.840;9.188;2024-01-30T15:54:20;11.30;99.90
11599;DHT22;5855;48.840;9.188;2024-01-30T15:56:47;11.30;99.90
11599;DHT22;5855;48.840;9.188;2024-01-30T15:59:15;11.20;99.90
11599;DHT22;5855;48.840;9.188;2024-01-30T16:01:41;11.10;99.90